BERICHT 22/12/2019: De oude website is tijdelijk weer online! In 2020 zal er een volledig nieuwe site uitgerold worden, die nu volop in ontwikkeling is! Ondertussen blijven onderstaande metingen wel actueel!

Weerstation Zoersel Live Webcam Weerstation Zoersel Live Webcam


sateliet wolkenradar  


Doneren

CBI


onweer radar meer informatie blitzortung!


regen radar  rain snow radar


Enkele sfeerfotootjes...  

Het weer levert geen direct gevaar op.    Er zijn geen waarschuwingen afgegeven.

metar rapporten vliegvelden

   
EBAW - Antwerp
gewijzigd: 19-01-2020 20:20
licht bewolkt  
licht bewolkt  
   wind: noorden 7,4 km/h
wind: noorden 7,4 km/h
temperatuur: 5°C
voelt als: 3°C
dauwpunt: 1°C
vochtigheid: 76%
barometer: 1046 hPa
bewolking: licht bewolkt
zicht: meer dan 10 km
bewolking: licht bewolkt 3300 ft
EBAW 191920Z 35004KT 9999 FEW033 05/01 Q1046 NOSIG
EBLG - Li├Ęge
gewijzigd: 19-01-2020 20:50
gedeeltelijk bewolkt  
gedeeltelijk bewolkt  
   wind: nnw 3,7 km/h
wind: nnw 3,7 km/h
temperatuur: 2°C
dauwpunt: 1°C
vochtigheid: 93%
barometer: 1044 hPa
bewolking: gedeeltelijk bewolkt
zicht: 8 km
bewolking: gedeeltelijk bewolkt
EBLG 191950Z 33002KT 8000 NSC 02/01 Q1044 NOSIG
EBCV - Mons/Bergen
gewijzigd: 19-01-2020 20:25
  
  
   wind: noorden 9,3 km/h
wind: noorden 9,3 km/h
temperatuur: 3°C
voelt als: 1°C
dauwpunt: 1°C
vochtigheid: 87%
barometer: 1044 hPa
zicht: meer dan 10 km
EBCV 191925Z AUTO 01005KT 9999 /// 03/01 Q1044 BLU
EHBK - Maastricht
gewijzigd: 19-01-2020 20:25
helder  
helder  
   wind: noorden 7,4 km/h
wind: noorden 7,4 km/h
temperatuur: 3°C
voelt als: 1°C
dauwpunt: 1°C
vochtigheid: 87%
barometer: 1044 hPa
bewolking: helder
zicht: meer dan 10 km
bewolking: helder
EHBK 191925Z AUTO 35004KT 310V030 9999 NCD 03/01 Q1044 NOSIG
ELLX - Luxemburg
gewijzigd: 19-01-2020 20:50
grotendeels bewolkt  
grotendeels bewolkt  
   wind: ono 11,1 km/h
wind: ono 11,1 km/h
temperatuur: 2°C
voelt als: -1°C
dauwpunt: 1°C
vochtigheid: 93%
barometer: 1042 hPa
bewolking: grotendeels bewolkt
zicht: meer dan 10 km
bewolking: licht bewolkt 2800 ft,
grotendeels bewolkt 4800 ft
ELLX 191950Z 07006KT 9999 FEW028 BKN048 02/01 Q1042 NOSIG
EBOS - Oostende
gewijzigd: 19-01-2020 20:50
licht bewolkt  
licht bewolkt  
   wind: nno 13 km/h
wind: nno 13 km/h
temperatuur: 6°C
voelt als: 3°C
dauwpunt: 3°C
vochtigheid: 81%
barometer: 1047 hPa
bewolking: licht bewolkt
zicht: meer dan 10 km
bewolking: licht bewolkt 2200 ft
EBOS 191950Z 03007KT 9999 FEW022 06/03 Q1047 NOSIG

script ontwikkeld door  Saratoga-weather.org aangepast voor de template door  Weerstation Leuven